createdAt,value
2022-09-09T00:02:03.582Z,18.44
2022-09-09T00:04:34.875Z,18.43
2022-09-09T00:07:07.050Z,18.47
2022-09-09T00:09:46.731Z,18.52
2022-09-09T00:12:18.635Z,18.39
2022-09-09T00:14:53.206Z,18.30
2022-09-09T00:17:40.699Z,18.27
2022-09-09T00:20:16.639Z,18.31
2022-09-09T00:22:53.320Z,18.39
2022-09-09T00:25:29.085Z,18.29
2022-09-09T00:27:58.158Z,18.28
2022-09-09T00:30:28.178Z,18.20
2022-09-09T00:33:00.185Z,18.08
2022-09-09T00:35:33.607Z,17.96
2022-09-09T00:38:10.765Z,18.05
2022-09-09T00:40:47.628Z,18.11
2022-09-09T00:43:32.128Z,18.09
2022-09-09T00:46:27.842Z,17.93
2022-09-09T00:49:04.595Z,17.87
2022-09-09T00:51:48.606Z,17.86
2022-09-09T00:54:29.034Z,17.91
2022-09-09T00:57:08.736Z,17.97
2022-09-09T00:59:48.860Z,17.91
2022-09-09T01:02:27.985Z,17.89
2022-09-09T01:04:56.704Z,17.86
2022-09-09T01:07:25.996Z,17.80
2022-09-09T01:09:58.499Z,17.82
2022-09-09T01:12:30.489Z,17.79
2022-09-09T01:15:10.661Z,17.83
2022-09-09T01:17:51.131Z,17.84
2022-09-09T01:20:25.215Z,17.86
2022-09-09T01:23:10.011Z,17.88
2022-09-09T01:26:34.465Z,17.84
2022-09-09T01:29:02.826Z,17.70
2022-09-09T01:31:34.339Z,17.75
2022-09-09T01:34:02.211Z,17.76
2022-09-09T01:36:38.063Z,17.68
2022-09-09T01:39:06.232Z,17.70
2022-09-09T01:41:35.811Z,17.62
2022-09-09T01:44:05.081Z,17.59
2022-09-09T01:46:33.588Z,17.57
2022-09-09T01:49:04.146Z,17.59
2022-09-09T01:51:32.876Z,17.66
2022-09-09T01:54:00.805Z,17.50
2022-09-09T01:56:42.168Z,17.54
2022-09-09T01:59:26.612Z,17.54
2022-09-09T02:02:06.667Z,17.51
2022-09-09T02:04:40.325Z,17.44
2022-09-09T02:07:16.435Z,17.45
2022-09-09T02:09:48.112Z,17.45
2022-09-09T02:12:22.499Z,17.36
2022-09-09T02:14:57.338Z,17.29
2022-09-09T02:17:29.456Z,17.23
2022-09-09T02:20:04.250Z,17.21
2022-09-09T02:22:36.260Z,17.26
2022-09-09T02:25:06.442Z,17.24
2022-09-09T02:27:36.706Z,17.24
2022-09-09T02:30:06.433Z,17.31
2022-09-09T02:32:37.689Z,17.27
2022-09-09T02:35:10.363Z,17.18
2022-09-09T02:37:40.740Z,17.16
2022-09-09T02:40:11.469Z,17.08
2022-09-09T02:42:42.974Z,17.07
2022-09-09T02:45:12.848Z,17.17
2022-09-09T02:47:48.257Z,17.20
2022-09-09T02:50:21.846Z,17.18
2022-09-09T02:53:02.115Z,17.24
2022-09-09T02:55:40.999Z,17.03
2022-09-09T02:58:13.172Z,17.01
2022-09-09T03:00:43.136Z,17.08
2022-09-09T03:03:11.654Z,17.10
2022-09-09T03:05:39.899Z,17.07
2022-09-09T03:08:07.955Z,16.98
2022-09-09T03:10:36.235Z,16.95
2022-09-09T03:13:05.347Z,16.92
2022-09-09T03:15:35.504Z,16.95
2022-09-09T03:18:04.076Z,16.96
2022-09-09T03:20:32.795Z,17.00
2022-09-09T03:23:02.068Z,16.91
2022-09-09T03:25:30.312Z,16.89
2022-09-09T03:27:58.788Z,16.82
2022-09-09T03:30:28.272Z,16.75
2022-09-09T03:32:57.734Z,16.81
2022-09-09T03:35:26.216Z,16.81
2022-09-09T03:37:54.121Z,16.80
2022-09-09T03:40:21.991Z,16.78
2022-09-09T03:42:50.207Z,16.69
2022-09-09T03:45:18.581Z,16.66
2022-09-09T03:47:47.115Z,16.64
2022-09-09T03:50:16.463Z,16.68
2022-09-09T03:52:44.900Z,16.74
2022-09-09T03:55:12.812Z,16.78
2022-09-09T03:57:40.696Z,16.74
2022-09-09T04:00:10.660Z,16.72
2022-09-09T04:02:38.610Z,16.73
2022-09-09T04:05:07.970Z,16.70
2022-09-09T04:07:37.287Z,16.61
2022-09-09T04:10:05.688Z,16.60
2022-09-09T04:12:33.564Z,16.60
2022-09-09T04:15:04.115Z,16.59
2022-09-09T04:17:32.058Z,16.57
2022-09-09T04:19:59.959Z,16.53
2022-09-09T04:22:27.874Z,16.54
2022-09-09T04:24:57.188Z,16.53
2022-09-09T04:27:25.170Z,16.48
2022-09-09T04:29:53.055Z,16.50
2022-09-09T04:32:20.972Z,16.54
2022-09-09T04:34:49.201Z,16.56
2022-09-09T04:37:17.806Z,16.63
2022-09-09T04:39:46.247Z,16.59
2022-09-09T04:42:19.781Z,16.58
2022-09-09T04:44:47.952Z,16.57
2022-09-09T04:47:15.911Z,16.59
2022-09-09T04:49:43.820Z,16.65
2022-09-09T04:52:11.774Z,16.69
2022-09-09T04:54:39.973Z,16.82
2022-09-09T04:57:08.019Z,16.90
2022-09-09T04:59:37.286Z,16.97
2022-09-09T05:02:05.411Z,17.03
2022-09-09T05:04:34.131Z,17.05
2022-09-09T05:07:02.015Z,17.11
2022-09-09T05:09:30.137Z,17.21
2022-09-09T05:11:58.386Z,17.31
2022-09-09T05:14:26.413Z,17.35
2022-09-09T05:16:56.947Z,17.41
2022-09-09T05:19:25.071Z,17.43
2022-09-09T05:21:53.066Z,17.53
2022-09-09T05:24:24.117Z,17.52
2022-09-09T05:26:53.655Z,17.59
2022-09-09T05:29:21.721Z,17.62
2022-09-09T05:31:49.839Z,17.59
2022-09-09T05:34:19.224Z,17.62
2022-09-09T05:36:47.901Z,17.64
2022-09-09T05:39:15.769Z,17.70
2022-09-09T05:41:43.797Z,17.79
2022-09-09T05:44:11.676Z,17.84
2022-09-09T05:46:39.739Z,17.90
2022-09-09T05:49:09.307Z,17.94
2022-09-09T05:51:38.690Z,18.05
2022-09-09T05:54:06.751Z,18.05
2022-09-09T05:56:34.685Z,18.16
2022-09-09T05:59:03.115Z,18.27
2022-09-09T06:01:33.812Z,18.35
2022-09-09T06:04:01.867Z,18.43
2022-09-09T06:06:37.540Z,18.45
2022-09-09T06:09:10.783Z,18.41
2022-09-09T06:11:40.621Z,18.49
2022-09-09T06:14:09.429Z,18.50
2022-09-09T06:16:38.772Z,18.56
2022-09-09T06:19:07.535Z,18.74
2022-09-09T06:21:38.039Z,18.91
2022-09-09T06:24:08.631Z,19.00
2022-09-09T06:26:38.268Z,19.07
2022-09-09T06:29:06.919Z,19.02
2022-09-09T06:31:37.887Z,19.20
2022-09-09T06:34:08.389Z,19.23
2022-09-09T06:36:39.274Z,19.31
2022-09-09T06:39:13.773Z,19.37
2022-09-09T06:41:43.635Z,19.35
2022-09-09T06:44:12.904Z,19.40
2022-09-09T06:46:41.387Z,19.36
2022-09-09T06:49:10.707Z,19.48
2022-09-09T06:51:44.089Z,19.57
2022-09-09T06:54:14.482Z,19.66
2022-09-09T06:56:44.381Z,19.70
2022-09-09T06:59:13.431Z,19.90
2022-09-09T07:01:42.989Z,19.95
2022-09-09T07:04:12.176Z,20.03
2022-09-09T07:06:44.169Z,20.15
2022-09-09T07:09:15.524Z,20.25
2022-09-09T07:11:45.237Z,20.37
2022-09-09T07:14:14.974Z,20.48
2022-09-09T07:16:44.071Z,20.44
2022-09-09T07:19:12.620Z,20.65
2022-09-09T07:21:41.985Z,20.75
2022-09-09T07:24:11.628Z,20.86
2022-09-09T07:26:41.939Z,20.92
2022-09-09T07:29:10.453Z,20.99
2022-09-09T07:31:40.856Z,21.03
2022-09-09T07:34:09.315Z,20.98
2022-09-09T07:36:40.179Z,21.02
2022-09-09T07:39:10.087Z,21.21
2022-09-09T07:41:41.477Z,21.34
2022-09-09T07:44:14.721Z,21.51
2022-09-09T07:46:43.510Z,21.65
2022-09-09T07:49:11.861Z,21.79
2022-09-09T07:51:41.711Z,22.06
2022-09-09T07:54:12.137Z,22.23
2022-09-09T07:56:42.390Z,22.46
2022-09-09T07:59:11.726Z,22.63
2022-09-09T08:01:41.608Z,22.73
2022-09-09T08:04:11.257Z,22.82
2022-09-09T08:06:41.693Z,22.89
2022-09-09T08:09:11.093Z,23.09
2022-09-09T08:11:42.019Z,23.20
2022-09-09T08:14:11.964Z,23.37
2022-09-09T08:16:42.243Z,23.49
2022-09-09T08:19:10.942Z,23.60
2022-09-09T08:21:43.259Z,23.70
2022-09-09T08:24:13.387Z,23.78
2022-09-09T08:26:44.495Z,23.97
2022-09-09T08:29:14.234Z,24.25
2022-09-09T08:31:44.616Z,24.14
2022-09-09T08:34:13.526Z,24.48
2022-09-09T08:36:44.590Z,24.67
2022-09-09T08:39:14.174Z,24.60
2022-09-09T08:42:13.438Z,24.91
2022-09-09T08:45:23.236Z,24.78
2022-09-09T08:48:05.587Z,24.87
2022-09-09T08:50:39.468Z,24.95
2022-09-09T08:53:14.069Z,25.11
2022-09-09T08:55:46.937Z,25.22
2022-09-09T08:58:18.514Z,25.11
2022-09-09T09:01:02.272Z,25.23
2022-09-09T09:03:42.618Z,25.12
2022-09-09T09:06:28.080Z,25.38
2022-09-09T09:09:03.281Z,25.18
2022-09-09T09:11:38.308Z,25.23
2022-09-09T09:14:13.987Z,25.39
2022-09-09T09:16:53.071Z,25.45
2022-09-09T09:19:23.835Z,25.48
2022-09-09T09:21:57.092Z,25.39
2022-09-09T09:24:33.588Z,25.76
2022-09-09T09:27:09.763Z,25.93
2022-09-09T09:30:10.497Z,26.06
2022-09-09T09:32:35.122Z,26.06
2022-09-09T09:35:09.064Z,26.14
2022-09-09T09:37:37.476Z,26.08
2022-09-09T09:40:12.299Z,26.27
2022-09-09T09:42:49.362Z,26.11
2022-09-09T09:45:29.381Z,26.38
2022-09-09T09:48:07.205Z,26.51
2022-09-09T09:50:36.526Z,26.50
2022-09-09T09:53:06.944Z,26.31
2022-09-09T09:55:38.012Z,26.15
2022-09-09T09:58:08.154Z,26.24
2022-09-09T10:00:50.828Z,26.32
2022-09-09T10:03:28.389Z,26.43
2022-09-09T10:05:57.251Z,26.35
2022-09-09T10:08:26.368Z,26.23
2022-09-09T10:11:19.310Z,26.07
2022-09-09T10:13:56.652Z,26.06
2022-09-09T10:16:37.882Z,25.81
2022-09-09T10:19:09.309Z,25.90
2022-09-09T10:22:00.652Z,25.83
2022-09-09T10:24:53.714Z,25.76
2022-09-09T10:27:31.582Z,25.73
2022-09-09T10:30:10.050Z,25.70
2022-09-09T10:32:52.244Z,25.70
2022-09-09T10:35:34.623Z,25.59
2022-09-09T10:38:20.227Z,25.58
2022-09-09T10:41:09.908Z,25.32
2022-09-09T10:44:01.736Z,25.38
2022-09-09T10:46:43.036Z,25.57
2022-09-09T10:49:25.492Z,25.61
2022-09-09T10:52:03.937Z,25.59
2022-09-09T10:54:47.997Z,25.59
2022-09-09T10:57:24.297Z,25.67
2022-09-09T11:00:07.841Z,25.78
2022-09-09T11:02:36.745Z,25.68
2022-09-09T11:05:11.805Z,25.43
2022-09-09T11:07:45.069Z,25.42
2022-09-09T11:10:25.115Z,25.22
2022-09-09T11:12:59.071Z,25.09
2022-09-09T11:15:35.796Z,25.01
2022-09-09T11:18:07.143Z,25.18
2022-09-09T11:20:36.712Z,25.35
2022-09-09T11:23:07.643Z,25.52
2022-09-09T11:25:41.359Z,25.64
2022-09-09T11:28:34.942Z,25.80
2022-09-09T11:31:19.424Z,25.80
2022-09-09T11:34:28.280Z,25.78
2022-09-09T11:37:18.297Z,25.78
2022-09-09T11:40:18.441Z,26.00
2022-09-09T11:42:50.290Z,26.04
2022-09-09T11:45:30.693Z,26.02
2022-09-09T11:48:00.251Z,26.21
2022-09-09T11:50:34.040Z,26.30
2022-09-09T11:53:23.816Z,26.41
2022-09-09T11:56:11.075Z,26.44
2022-09-09T11:58:55.662Z,26.67
2022-09-09T12:01:45.676Z,26.87
2022-09-09T12:04:37.833Z,27.07
2022-09-09T12:07:25.587Z,27.72
2022-09-09T12:10:00.407Z,28.12
2022-09-09T12:12:31.594Z,28.28
2022-09-09T12:15:18.427Z,28.56
2022-09-09T12:17:48.166Z,28.79
2022-09-09T12:20:18.622Z,29.27
2022-09-09T12:23:00.506Z,29.37
2022-09-09T12:25:38.763Z,29.61
2022-09-09T12:28:13.159Z,29.47
2022-09-09T12:30:55.943Z,29.61
2022-09-09T12:33:24.604Z,30.04
2022-09-09T12:35:57.686Z,30.11
2022-09-09T12:38:32.409Z,30.13
2022-09-09T12:41:01.815Z,29.76
2022-09-09T12:43:31.079Z,29.70
2022-09-09T12:46:02.292Z,29.29
2022-09-09T12:48:37.737Z,29.31
2022-09-09T12:51:09.785Z,28.95
2022-09-09T12:53:39.837Z,28.83
2022-09-09T12:56:20.252Z,28.72
2022-09-09T12:58:52.387Z,28.86
2022-09-09T13:01:24.344Z,29.08
2022-09-09T13:03:53.613Z,29.30
2022-09-09T13:06:28.862Z,29.20
2022-09-09T13:08:59.584Z,29.19
2022-09-09T13:11:33.072Z,28.83
2022-09-09T13:14:01.823Z,28.76
2022-09-09T13:16:33.412Z,28.69
2022-09-09T13:19:12.072Z,28.49
2022-09-09T13:21:43.466Z,28.30
2022-09-09T13:24:30.232Z,28.22
2022-09-09T13:27:02.916Z,28.44
2022-09-09T13:29:31.903Z,28.40
2022-09-09T13:32:09.392Z,28.38
2022-09-09T13:34:38.251Z,28.36
2022-09-09T13:37:08.224Z,28.13
2022-09-09T13:39:37.943Z,27.93
2022-09-09T13:42:08.220Z,27.64
2022-09-09T13:44:39.954Z,27.47
2022-09-09T13:47:20.031Z,27.34
2022-09-09T13:49:48.849Z,27.23
2022-09-09T13:52:19.052Z,27.39
2022-09-09T13:54:51.052Z,27.74
2022-09-09T13:57:21.819Z,27.97
2022-09-09T14:00:06.255Z,28.21
2022-09-09T14:02:34.839Z,28.55
2022-09-09T14:05:02.945Z,29.04
2022-09-09T14:07:30.955Z,28.94
2022-09-09T14:10:01.187Z,29.34
2022-09-09T14:12:30.874Z,29.75
2022-09-09T14:15:00.347Z,30.06
2022-09-09T14:17:32.648Z,29.92
2022-09-09T14:20:01.188Z,29.91
2022-09-09T14:22:29.533Z,29.67
2022-09-09T14:24:58.611Z,29.71
2022-09-09T14:27:27.942Z,29.42
2022-09-09T14:29:57.363Z,29.55
2022-09-09T14:32:25.298Z,29.42
2022-09-09T14:34:54.098Z,29.42
2022-09-09T14:37:22.236Z,29.37
2022-09-09T14:39:51.535Z,29.01
2022-09-09T14:42:19.707Z,28.78
2022-09-09T14:44:48.824Z,28.87
2022-09-09T14:47:18.744Z,28.52
2022-09-09T14:49:47.289Z,28.42
2022-09-09T14:52:15.371Z,28.30
2022-09-09T14:54:43.248Z,28.20
2022-09-09T14:57:11.201Z,27.98
2022-09-09T14:59:39.175Z,27.87
2022-09-09T15:02:07.610Z,27.70
2022-09-09T15:04:37.003Z,27.56
2022-09-09T15:07:04.960Z,27.48
2022-09-09T15:09:32.952Z,27.44
2022-09-09T15:12:01.804Z,27.34
2022-09-09T15:14:29.700Z,27.30
2022-09-09T15:16:57.600Z,27.28
2022-09-09T15:19:25.623Z,27.34
2022-09-09T15:21:55.412Z,27.56
2022-09-09T15:24:23.483Z,27.85
2022-09-09T15:26:51.590Z,27.85
2022-09-09T15:29:19.945Z,28.11
2022-09-09T15:31:48.633Z,28.57
2022-09-09T15:34:17.033Z,28.93
2022-09-09T15:36:47.224Z,28.88
2022-09-09T15:39:18.443Z,28.66
2022-09-09T15:41:47.827Z,28.37
2022-09-09T15:44:16.755Z,28.34
2022-09-09T15:46:46.138Z,28.01
2022-09-09T15:49:15.307Z,27.87
2022-09-09T15:51:45.141Z,27.67
2022-09-09T15:54:14.695Z,27.49
2022-09-09T15:56:44.462Z,27.40
2022-09-09T15:59:12.577Z,27.33
2022-09-09T16:01:41.849Z,27.35
2022-09-09T16:04:10.634Z,27.19
2022-09-09T16:06:40.073Z,27.17
2022-09-09T16:09:11.184Z,26.99
2022-09-09T16:11:40.368Z,26.88
2022-09-09T16:14:09.989Z,26.78
2022-09-09T16:16:38.021Z,26.59
2022-09-09T16:19:08.049Z,26.41
2022-09-09T16:21:40.660Z,26.30
2022-09-09T16:24:10.291Z,26.10
2022-09-09T16:26:40.378Z,26.01
2022-09-09T16:29:10.959Z,25.90
2022-09-09T16:31:40.499Z,25.64
2022-09-09T16:34:08.563Z,25.51
2022-09-09T16:36:40.046Z,25.01
2022-09-09T16:39:10.886Z,24.63
2022-09-09T16:41:40.171Z,24.72
2022-09-09T16:44:12.418Z,24.73
2022-09-09T16:46:42.721Z,24.70
2022-09-09T16:49:12.190Z,24.74
2022-09-09T16:51:42.527Z,24.75
2022-09-09T16:54:12.200Z,24.76
2022-09-09T16:56:43.458Z,24.75
2022-09-09T16:59:15.377Z,24.52
2022-09-09T17:01:44.986Z,24.35
2022-09-09T17:04:14.744Z,24.02
2022-09-09T17:06:42.858Z,23.94
2022-09-09T17:09:14.030Z,23.72
2022-09-09T17:11:42.559Z,23.57
2022-09-09T17:14:15.304Z,23.49
2022-09-09T17:16:44.210Z,23.70
2022-09-09T17:19:12.800Z,23.80
2022-09-09T17:21:59.946Z,23.38
2022-09-09T17:24:30.124Z,23.40
2022-09-09T17:26:58.904Z,23.68
2022-09-09T17:29:28.275Z,23.83
2022-09-09T17:31:57.518Z,23.97
2022-09-09T17:34:26.401Z,24.04
2022-09-09T17:36:54.372Z,23.94
2022-09-09T17:39:22.911Z,23.82
2022-09-09T17:41:50.870Z,23.91
2022-09-09T17:44:29.497Z,23.94
2022-09-09T17:46:59.212Z,23.91
2022-09-09T17:49:27.751Z,23.88
2022-09-09T17:51:57.208Z,23.81
2022-09-09T17:54:25.284Z,23.76
2022-09-09T17:56:54.359Z,23.74
2022-09-09T17:59:22.325Z,23.74
2022-09-09T18:01:51.354Z,23.74
2022-09-09T18:04:21.198Z,23.69
2022-09-09T18:06:51.952Z,23.58
2022-09-09T18:09:23.253Z,23.53
2022-09-09T18:11:55.405Z,23.46
2022-09-09T18:14:25.553Z,23.41
2022-09-09T18:16:54.189Z,23.43
2022-09-09T18:19:25.577Z,23.44
2022-09-09T18:21:57.445Z,23.44
2022-09-09T18:24:28.355Z,23.38
2022-09-09T18:26:56.324Z,23.34
2022-09-09T18:29:26.350Z,23.27
2022-09-09T18:31:55.603Z,23.29
2022-09-09T18:34:28.676Z,23.33
2022-09-09T18:36:57.340Z,23.34
2022-09-09T18:39:28.191Z,23.35
2022-09-09T18:41:59.531Z,23.36
2022-09-09T18:44:30.391Z,23.38
2022-09-09T18:46:58.615Z,23.34
2022-09-09T18:49:31.032Z,23.32
2022-09-09T18:51:59.278Z,23.32
2022-09-09T18:54:30.405Z,23.29
2022-09-09T18:57:00.997Z,23.33
2022-09-09T18:59:29.346Z,23.32
2022-09-09T19:01:57.473Z,23.26
2022-09-09T19:04:27.563Z,23.26
2022-09-09T19:06:58.248Z,23.29
2022-09-09T19:09:28.575Z,23.28
2022-09-09T19:11:59.856Z,23.27
2022-09-09T19:14:31.700Z,23.26
2022-09-09T19:17:00.672Z,23.11
2022-09-09T19:19:32.068Z,23.18
2022-09-09T19:22:00.761Z,23.15
2022-09-09T19:24:30.776Z,23.07
2022-09-09T19:27:02.752Z,23.12
2022-09-09T19:29:33.092Z,23.18
2022-09-09T19:32:49.217Z,23.16
2022-09-09T19:34:52.564Z,23.12
2022-09-09T19:37:21.034Z,23.02
2022-09-09T19:39:49.819Z,22.98
2022-09-09T19:42:20.226Z,22.96
2022-09-09T19:44:49.208Z,22.99
2022-09-09T19:47:18.525Z,22.97
2022-09-09T19:49:47.790Z,23.00
2022-09-09T19:52:17.796Z,22.98
2022-09-09T19:54:46.813Z,22.98
2022-09-09T19:57:16.284Z,23.00
2022-09-09T19:59:44.426Z,22.98
2022-09-09T20:02:15.829Z,22.98
2022-09-09T20:04:45.828Z,22.92
2022-09-09T20:07:15.939Z,22.95
2022-09-09T20:09:45.704Z,22.89
2022-09-09T20:12:13.767Z,22.91
2022-09-09T20:14:41.866Z,22.86
2022-09-09T20:17:10.354Z,22.92
2022-09-09T20:19:40.074Z,22.84
2022-09-09T20:22:08.226Z,22.81
2022-09-09T20:24:38.256Z,22.73
2022-09-09T20:27:09.529Z,22.62
2022-09-09T20:29:38.265Z,22.57
2022-09-09T20:32:07.070Z,22.53
2022-09-09T20:34:35.185Z,22.43
2022-09-09T20:37:03.363Z,22.37
2022-09-09T20:39:31.472Z,22.33
2022-09-09T20:41:59.429Z,22.34
2022-09-09T20:44:29.693Z,22.27
2022-09-09T20:47:02.868Z,22.24
2022-09-09T20:49:31.055Z,22.15
2022-09-09T20:51:59.020Z,22.07
2022-09-09T20:54:30.331Z,22.02
2022-09-09T20:57:00.603Z,21.97
2022-09-09T20:59:31.956Z,21.94
2022-09-09T21:02:01.592Z,21.69
2022-09-09T21:04:30.663Z,21.67
2022-09-09T21:06:58.618Z,21.71
2022-09-09T21:09:26.587Z,21.76
2022-09-09T21:11:54.792Z,21.59
2022-09-09T21:14:22.978Z,21.65
2022-09-09T21:16:52.508Z,21.75
2022-09-09T21:19:20.409Z,21.82
2022-09-09T21:21:48.898Z,21.86
2022-09-09T21:24:17.271Z,21.78
2022-09-09T21:26:46.640Z,21.75
2022-09-09T21:29:14.550Z,21.71
2022-09-09T21:31:43.190Z,21.47
2022-09-09T21:34:13.490Z,21.38
2022-09-09T21:36:42.025Z,21.26
2022-09-09T21:39:10.193Z,21.10
2022-09-09T21:41:38.113Z,21.00
2022-09-09T21:44:06.047Z,20.89
2022-09-09T21:46:34.019Z,20.89
2022-09-09T21:49:03.525Z,20.96
2022-09-09T21:51:32.839Z,20.94
2022-09-09T21:54:00.990Z,20.92
2022-09-09T21:56:29.145Z,20.78
2022-09-09T21:58:57.842Z,20.85
2022-09-09T22:01:26.908Z,20.85
2022-09-09T22:03:54.929Z,20.78
2022-09-09T22:06:22.930Z,20.77
2022-09-09T22:08:52.284Z,20.64
2022-09-09T22:11:22.971Z,20.55
2022-09-09T22:13:53.224Z,20.56
2022-09-09T22:16:23.002Z,20.62
2022-09-09T22:18:56.757Z,20.61
2022-09-09T22:21:26.169Z,20.66
2022-09-09T22:23:58.111Z,20.56
2022-09-09T22:26:28.698Z,20.45
2022-09-09T22:28:57.399Z,20.50
2022-09-09T22:31:26.076Z,20.55
2022-09-09T22:33:54.772Z,20.59
2022-09-09T22:36:22.890Z,20.63
2022-09-09T22:38:51.811Z,20.65
2022-09-09T22:41:21.554Z,20.67
2022-09-09T22:43:50.808Z,20.61
2022-09-09T22:46:19.680Z,20.72
2022-09-09T22:48:48.175Z,20.73
2022-09-09T22:51:17.216Z,20.71
2022-09-09T22:53:46.520Z,20.73
2022-09-09T22:56:17.669Z,20.74
2022-09-09T22:58:48.156Z,20.80
2022-09-09T23:01:18.033Z,20.77
2022-09-09T23:03:47.133Z,20.73
2022-09-09T23:06:22.197Z,20.78
2022-09-09T23:08:52.005Z,20.72
2022-09-09T23:11:20.121Z,20.80
2022-09-09T23:13:52.617Z,20.80
2022-09-09T23:16:23.108Z,20.77
2022-09-09T23:18:52.223Z,20.75
2022-09-09T23:21:20.957Z,20.73
2022-09-09T23:23:49.152Z,20.84
2022-09-09T23:26:21.013Z,20.79
2022-09-09T23:28:51.853Z,20.81
2022-09-09T23:31:24.958Z,20.82
2022-09-09T23:33:54.376Z,20.84
2022-09-09T23:36:25.183Z,20.77
2022-09-09T23:38:54.511Z,20.71
2022-09-09T23:41:22.434Z,20.70
2022-09-09T23:43:53.827Z,20.64
2022-09-09T23:46:25.281Z,20.56
2022-09-09T23:48:53.195Z,20.50
2022-09-09T23:51:24.049Z,20.47
2022-09-09T23:53:56.916Z,20.46
2022-09-09T23:56:27.843Z,20.39
2022-09-09T23:58:57.157Z,20.13
